KLVM/LVM METAR and TAF weather

Enter ICAO airport designator
Station Type Date Time Source
KLVM METAR 2022/05/23 12:53 UTC NOAA

KLVM 231253Z AUTO 31008KT 10SM CLR 01/M02 A3015 RMK AO2 SLP218 T00061017


Station Type Date Time Source
KLVM Decoded METAR 2022/05/23 12:53 UTC NOAA

LIVINGSTON MISSION FIELD, MT, United States (KLVM) 45-42N 110-26W 1418M
May 23, 2022 - 08:53 AM EDT / 2022.05.23 1253 UTC
Wind: from the NW (310 degrees) at 9 MPH (8 KT):0
Visibility: 10 mile(s):0
Sky conditions: clear
Temperature: 33.1 F (0.6 C)
Windchill: 24 F (-4 C):1
Dew Point: 28.9 F (-1.7 C)
Relative Humidity: 84%
Pressure (altimeter): 30.15 in. Hg (1020 hPa)
ob: KLVM 231253Z AUTO 31008KT 10SM CLR 01/M02 A3015 RMK AO2 SLP218 T00061017
cycle: 13

Station Type Date Time Source
KLVM TAF 2022/05/23 12:22 UTC NOAA

TAF KLVM 231120Z 2312/2412 26010KT P6SM SCT100
FM232200 26010KT P6SM VCTS BKN080CB
FM240200 26010KT P6SM VCSH BKN080
FM240600 26008KT P6SM BKN100

Example: see airport list